ETEB

Ansbach Army Heliport

Germany
TAF ETEB 172205Z 1722/1904 27012KT 6000 -SN SCT010 BKN012 QNH2980INS TEMPO 1722/1800 BKN020 BECMG 1723/1800 27009KT 9999 NSW FEW015 BKN030 QNH2981INS TEMPO 1806/1809 3200 -SN BKN012 BECMG 1809/1810 VRB06KT 9999 BKN017 BKN035 QNH3003INS BECMG 1813/1814 VRB06KT 9999 SCT050 QNH3098INS TX03/1814Z TNM03/1821Z LAST NO AMDS AFT 1722 NEXT 2206
Issued Valid From Valid To
Jan-17 @ 22:05 UTC
(yesterday)
Jan-17 @ 22:00 UTC
(yesterday)
Jan-19 @ 04:00 UTC
(in an hour)
Expired Click to View Jan-17 @ 22:00 to Jan-17 @ 23:00
TAF ETEB 172205Z 1722/1904 27012KT 6000 -SN SCT010 BKN012 QNH2980INS
Wind Visibility Clouds Conditions Readings
270° at 12 knots 6,003 meters
  • Scattered at 1,000' AGL
  • Broken at 1,200' AGL
  • Light Snow
Altimeter 29.79" Hg
Pressure 1008.92 hPa
Expired Click to View Jan-17 @ 22:00 to Jan-18 @ 00:00
TEMPO 1722/1800 BKN020
Clouds
  • Broken at 2,000' AGL
Expired Click to View Jan-17 @ 23:00 to Jan-18 @ 09:00
BECMG 1723/1800 27009KT 9999 NSW FEW015 BKN030 QNH2981INS
Wind Visibility Clouds Conditions Readings
270° at 9 knots 10,000+ meters
  • Few at 1,500' AGL
  • Broken at 3,000' AGL
Altimeter 29.82" Hg
Pressure 1009.92 hPa
Expired Click to View Jan-18 @ 06:00 to Jan-18 @ 09:00
TEMPO 1806/1809 3200 -SN BKN012
Visibility Clouds Conditions
3,203 meters
  • Broken at 1,200' AGL
  • Light Snow
Expired Click to View Jan-18 @ 09:00 to Jan-18 @ 13:00
BECMG 1809/1810 VRB06KT 9999 BKN017 BKN035 QNH3003INS
Wind Visibility Clouds Conditions Readings
Variable at 6 knots 10,000+ meters
  • Broken at 1,700' AGL
  • Broken at 3,500' AGL
Altimeter 30.03" Hg
Pressure 1016.92 hPa
Becoming Jan-18 @ 13:00 to Jan-19 @ 04:00
BECMG 1813/1814 VRB06KT 9999 SCT050 QNH3098INS TX03/1814Z TNM03/1821Z LAST NO AMDS AFT 1722 NEXT 2206
Wind Visibility Clouds Conditions Readings
Variable at 6 knots 10,000+ meters
  • Scattered at 5,000' AGL
Altimeter 30.97" Hg
Pressure 1048.91 hPa
TAF ETEB 172205Z 1722/1904 27012KT 6000 -SN SCT010 BKN012 QNH2980INS TEMPO 1722/1800 BKN020 BECMG 1723/1800 27009KT 9999 NSW FEW015 BKN030 QNH2981INS TEMPO 1806/1809 3200 -SN BKN012 BECMG 1809/1810 VRB06KT 9999 BKN017 BKN035 QNH3003INS BECMG 1813/1814 VRB06KT 9999 SCT050 QNH3098INS TX03/1814Z TNM03/1821Z LAST NO AMDS AFT 1722 NEXT 2206
Issued Jan-17 @ 22:05 UTC
(yesterday)
Valid From Jan-17 @ 22:00 UTC
(yesterday)
Valid To Jan-19 @ 04:00 UTC
(in an hour)
Jan-17 @ 22:00 - Jan-17 @ 23:00
Wind Visibility
270° at 12 knots 6,003 meters
Clouds
  • Scattered at 1,000' AGL
  • Broken at 1,200' AGL
Conditions
  • Light Snow
Jan-17 @ 22:00 - Jan-18 @ 00:00
Clouds
  • Broken at 2,000' AGL
Jan-17 @ 23:00 - Jan-18 @ 09:00
Wind Visibility
270° at 9 knots 10,000+ meters
Clouds
  • Few at 1,500' AGL
  • Broken at 3,000' AGL
Conditions
Jan-18 @ 06:00 - Jan-18 @ 09:00
Clouds
  • Broken at 1,200' AGL
Conditions
  • Light Snow
Jan-18 @ 09:00 - Jan-18 @ 13:00
Wind Visibility
Variable at 6 knots 10,000+ meters
Clouds
  • Broken at 1,700' AGL
  • Broken at 3,500' AGL
Conditions
Becoming Jan-18 @ 13:00 - Jan-19 @ 04:00
Wind Visibility
Variable at 6 knots 10,000+ meters
Clouds
  • Scattered at 5,000' AGL
Conditions